Bei Facebook empfehlenBei Twitter postenGoogle plusPinterest

Das Wetter im Erzgebirge am 31.10.2016

Wetter und Klima am 31.10.2016 Holzhau im Erzgebirge (630m ü.NN)
Letzte gemessene Temperatur und Uhrzeit der Messung23:45:00 Uhr6.80 °C
Temperatur (Maximum / Höchstwert) und Uhrzeit der Messung13:15:00 Uhr10.10 °C
Temperatur (Minimum / Tiefstwert) und Uhrzeit der Messung08:15:000.90 °C
Errechneter Absolutwert der Temperaturschwankungen zwischen Tmin und Tmax des Tages9.20 K
Errechnete Tagesmitteltemperatur5.46250 °C
Gesamt - Niederschlag des Tages (in flüssiger Form)0.00 Liter / m²
Luftdruck (Maximum / Höchstwert) und Zeitpunkt der Messung01:00:00 Uhr1024.60 hPa
Luftdruck (Minimum / Tiefstwert) und Zeitpunkt der Messung23:45:00 Uhr1021.50 hPa
Errechneter Absolutwert der Luftdruckschwankungen des Tages3.10 hPa
Höchste gemessene Windgeschwindigkeit und Uhrzeit der Messung23:45:00 Uhr0.00 km/h
Errechnete Windhäufigkeit in Relation zu den Messwerten des Tages0.00000 %
Niedrigste Windkühle (Windchill) und Zeitpunkt der Messung08:15:00 Uhr0.90 °C
Taupunkt (Maximum / Höchstwert) und Uhrzeit der Messung12:30:00 Uhr8.30 °C
Taupunkt (Minimum / Tiefstwert) und Uhrzeit der Messung00:00:000.10 °C
Anzahl der automatisch eingelesenen Messwerte 96

Detaillierte Wetter- und Klima- Messwerte für den 31.10.2016 in Holzhau im Erzgebirge (630m ü.NN)
ZeitTemperaturLuftdruckRel. LuftfeuchteWindWindrichtungWindchillTaupunktNiederschlag l/m²
23:45:006.80 °C1021.50 hPa96.00 %6.20 °C 
23:30:006.80 °C1021.50 hPa96.00 %6.20 °C 
23:15:006.90 °C1021.60 hPa96.00 %6.30 °C 
23:00:006.90 °C1021.90 hPa96.00 %6.30 °C 
22:45:006.90 °C1022.00 hPa96.00 %6.30 °C 
22:30:006.90 °C1021.90 hPa96.00 %6.30 °C 
22:15:006.90 °C1021.90 hPa96.00 %6.30 °C 
22:00:006.90 °C1022.00 hPa96.00 %6.30 °C 
21:45:006.90 °C1022.10 hPa95.00 %6.20 °C 
21:30:007.00 °C1022.10 hPa95.00 %6.30 °C 
21:15:007.10 °C1022.10 hPa95.00 %6.40 °C 
21:00:007.10 °C1022.00 hPa95.00 %6.40 °C 
20:45:007.00 °C1022.00 hPa95.00 %6.30 °C 
20:30:007.00 °C1022.10 hPa95.00 %6.30 °C 
20:15:007.00 °C1022.00 hPa94.00 %6.10 °C 
20:00:007.00 °C1022.20 hPa94.00 %6.10 °C 
19:45:007.00 °C1022.10 hPa94.00 %6.10 °C 
19:30:006.90 °C1022.30 hPa94.00 %6.00 °C 
19:15:007.00 °C1022.10 hPa94.00 %6.10 °C 
19:00:007.00 °C1022.10 hPa93.00 %5.90 °C 
18:45:007.00 °C1022.00 hPa93.00 %5.90 °C 
18:30:007.10 °C1022.10 hPa92.00 %5.90 °C 
18:15:007.20 °C1021.90 hPa92.00 %6.00 °C 
18:00:007.20 °C1021.80 hPa92.00 %6.00 °C 
17:45:007.30 °C1021.90 hPa91.00 %5.90 °C 
17:30:007.40 °C1021.90 hPa90.00 %5.90 °C 
17:15:007.60 °C1022.00 hPa90.00 %6.10 °C 
17:00:007.90 °C1022.20 hPa89.00 %6.20 °C 
16:45:008.10 °C1022.10 hPa89.00 %6.40 °C 
16:30:008.20 °C1022.20 hPa89.00 %6.50 °C 
16:15:008.30 °C1022.40 hPa88.00 %6.40 °C 
16:00:008.30 °C1022.30 hPa87.00 %6.30 °C 
15:45:008.40 °C1022.50 hPa86.00 %6.20 °C 
15:30:008.90 °C1022.50 hPa86.00 %6.70 °C 
15:15:008.90 °C1022.40 hPa86.00 %6.70 °C 
15:00:009.00 °C1022.70 hPa85.00 %6.60 °C 
14:45:009.30 °C1022.90 hPa84.00 %6.70 °C 
14:30:009.50 °C1022.90 hPa84.00 %6.90 °C 
14:15:009.40 °C1023.10 hPa84.00 %6.80 °C 
14:00:009.80 °C1023.20 hPa85.00 %7.40 °C 
13:45:009.90 °C1023.10 hPa85.00 %7.50 °C 
13:30:009.90 °C1023.30 hPa85.00 %7.50 °C 
13:15:0010.10 °C1023.40 hPa87.00 %8.00 °C 
13:00:009.80 °C1023.30 hPa87.00 %7.70 °C 
12:45:009.70 °C1023.40 hPa90.00 %8.10 °C 
12:30:009.50 °C1023.50 hPa92.00 %8.30 °C 
12:15:008.70 °C1023.40 hPa93.00 %7.60 °C 
12:00:008.40 °C1023.60 hPa94.00 %7.50 °C 
11:45:008.30 °C1023.70 hPa95.00 %7.50 °C 
11:30:008.20 °C1023.40 hPa95.00 %7.40 °C 
11:15:007.60 °C1023.70 hPa96.00 %7.00 °C 
11:00:006.90 °C1023.70 hPa96.00 %6.30 °C 
10:45:006.10 °C1023.80 hPa96.00 %5.50 °C 
10:30:005.10 °C1023.80 hPa96.00 %4.50 °C 
10:15:004.30 °C1023.80 hPa96.00 %3.70 °C 
10:00:003.90 °C1024.00 hPa96.00 %3.30 °C 
09:45:003.30 °C1023.90 hPa96.00 %2.70 °C 
09:30:002.90 °C1024.00 hPa96.00 %2.30 °C 
09:15:002.40 °C1024.10 hPa96.00 %1.80 °C 
09:00:001.90 °C1024.10 hPa95.00 %1.20 °C 
08:45:001.50 °C1024.10 hPa95.00 %0.80 °C 
08:30:001.10 °C1024.00 hPa95.00 %0.40 °C 
08:15:000.90 °C1024.20 hPa95.00 %0.20 °C 
08:00:001.10 °C1024.00 hPa95.00 %0.40 °C 
07:45:001.60 °C1023.80 hPa95.00 %0.90 °C 
07:30:002.30 °C1023.60 hPa95.00 %1.60 °C 
07:15:002.60 °C1023.50 hPa95.00 %1.90 °C 
07:00:002.80 °C1023.70 hPa95.00 %2.10 °C 
06:45:002.90 °C1023.60 hPa95.00 %2.20 °C 
06:30:002.90 °C1023.80 hPa95.00 %2.20 °C 
06:15:002.90 °C1023.80 hPa95.00 %2.20 °C 
06:00:002.90 °C1023.80 hPa95.00 %2.20 °C 
05:45:002.80 °C1023.70 hPa95.00 %2.10 °C 
05:30:002.80 °C1023.70 hPa95.00 %2.10 °C 
05:15:002.70 °C1023.80 hPa95.00 %2.00 °C 
05:00:002.60 °C1023.80 hPa95.00 %1.90 °C 
04:45:002.60 °C1023.80 hPa95.00 %1.90 °C 
04:30:002.70 °C1023.90 hPa95.00 %2.00 °C 
04:15:002.90 °C1023.90 hPa94.00 %2.00 °C 
04:00:002.90 °C1023.90 hPa94.00 %2.00 °C 
03:45:002.90 °C1023.90 hPa94.00 %2.00 °C 
03:30:002.90 °C1023.90 hPa94.00 %2.00 °C 
03:15:002.90 °C1024.10 hPa94.00 %2.00 °C 
03:00:002.80 °C1024.10 hPa94.00 %1.90 °C 
02:45:002.80 °C1024.10 hPa94.00 %1.90 °C 
02:30:002.70 °C1024.10 hPa94.00 %1.80 °C 
02:15:002.60 °C1024.20 hPa94.00 %1.70 °C 
02:00:002.50 °C1024.30 hPa94.00 %1.60 °C 
01:45:002.40 °C1024.40 hPa94.00 %1.50 °C 
01:30:002.30 °C1024.30 hPa94.00 %1.40 °C 
01:15:002.20 °C1024.40 hPa94.00 %1.30 °C 
01:00:001.90 °C1024.60 hPa94.00 %1.00 °C 
00:45:001.60 °C1024.40 hPa93.00 %0.60 °C 
00:30:001.30 °C1024.40 hPa93.00 %0.30 °C 
00:15:001.30 °C1024.50 hPa93.00 %0.30 °C 
00:00:001.10 °C1024.60 hPa93.00 %0.10 °C 

Permanenter Link zu dieser Seite: Wetter im Erzgebirge am 31.10.2016
Performance-Info: Die Erstellung der Seite / Statistik(en) / Tabelle(n) erforderte 5 Datenbankserver-Abfrage(n) und dauerte 101 Millisekunden. (Dieser Messwert ist von der Gesamt-Auslastung des Servers abhängig.)
Erzgebirge - Wetter | Erzgebirge - Wetter (Mobilgeräte) | Komplette Klimadatenbank